createdAt,value
2023-04-30T00:01:01.632Z,3.50
2023-04-30T00:03:28.577Z,2.80
2023-04-30T00:05:55.543Z,3.47
2023-04-30T00:08:22.759Z,3.05
2023-04-30T00:10:49.681Z,3.20
2023-04-30T00:13:17.004Z,3.30
2023-04-30T00:15:43.802Z,3.40
2023-04-30T00:18:10.937Z,3.72
2023-04-30T00:20:37.891Z,3.50
2023-04-30T00:23:04.762Z,3.78
2023-04-30T00:25:31.859Z,4.07
2023-04-30T00:27:58.663Z,3.45
2023-04-30T00:30:25.690Z,3.88
2023-04-30T00:32:52.666Z,4.05
2023-04-30T00:35:19.529Z,3.55
2023-04-30T00:37:47.520Z,3.38
2023-04-30T00:40:14.553Z,3.30
2023-04-30T00:42:41.500Z,3.20
2023-04-30T00:45:08.971Z,3.38
2023-04-30T00:47:36.499Z,3.65
2023-04-30T00:50:03.430Z,3.72
2023-04-30T00:52:30.765Z,3.67
2023-04-30T00:54:57.887Z,3.90
2023-04-30T00:57:25.722Z,3.65
2023-04-30T00:59:53.454Z,4.35
2023-04-30T01:02:20.508Z,4.68
2023-04-30T01:04:47.467Z,4.20
2023-04-30T01:07:14.349Z,4.30
2023-04-30T01:09:41.264Z,4.45
2023-04-30T01:12:39.681Z,4.60
2023-04-30T01:15:30.539Z,4.22
2023-04-30T01:18:14.003Z,4.30
2023-04-30T01:20:51.001Z,5.03
2023-04-30T01:23:35.763Z,4.53
2023-04-30T01:26:19.521Z,5.10
2023-04-30T01:28:47.428Z,5.00
2023-04-30T01:31:16.415Z,4.95
2023-04-30T01:33:43.286Z,4.65
2023-04-30T01:36:58.781Z,5.05
2023-04-30T01:39:53.388Z,4.90
2023-04-30T01:42:23.452Z,4.95
2023-04-30T01:45:58.664Z,5.05
2023-04-30T01:48:46.006Z,4.68
2023-04-30T01:51:25.969Z,5.00
2023-04-30T01:56:54.348Z,4.65
2023-04-30T01:59:21.673Z,4.80
2023-04-30T02:01:48.749Z,5.63
2023-04-30T02:04:15.915Z,5.22
2023-04-30T02:06:42.909Z,5.55
2023-04-30T02:09:10.680Z,4.82
2023-04-30T02:11:37.581Z,5.25
2023-04-30T02:14:04.365Z,5.25
2023-04-30T02:16:31.206Z,5.38
2023-04-30T02:18:58.075Z,5.43
2023-04-30T02:21:24.926Z,5.30
2023-04-30T02:23:51.725Z,5.88
2023-04-30T02:26:18.530Z,5.53
2023-04-30T02:28:45.486Z,5.72
2023-04-30T02:31:12.325Z,4.65
2023-04-30T02:33:39.098Z,5.20
2023-04-30T02:36:06.207Z,4.85
2023-04-30T02:38:33.040Z,5.22
2023-04-30T02:40:59.834Z,4.93
2023-04-30T02:43:26.647Z,4.50
2023-04-30T02:45:53.489Z,4.05
2023-04-30T02:48:20.397Z,4.65
2023-04-30T02:50:47.221Z,4.93
2023-04-30T02:53:14.258Z,4.78
2023-04-30T02:55:41.216Z,4.80
2023-04-30T02:58:08.031Z,5.10
2023-04-30T03:00:34.969Z,4.93
2023-04-30T03:03:02.126Z,4.82
2023-04-30T03:05:30.052Z,4.05
2023-04-30T03:07:56.919Z,4.32
2023-04-30T03:10:23.932Z,4.50
2023-04-30T03:12:50.729Z,4.45
2023-04-30T03:15:18.241Z,4.50
2023-04-30T03:17:46.357Z,4.38
2023-04-30T03:20:14.241Z,4.82
2023-04-30T03:22:41.748Z,5.20
2023-04-30T03:25:10.482Z,4.97
2023-04-30T03:27:37.279Z,4.85
2023-04-30T03:30:05.151Z,5.57
2023-04-30T03:32:32.303Z,5.68
2023-04-30T03:35:00.157Z,4.80
2023-04-30T03:37:27.059Z,4.75
2023-04-30T03:39:53.973Z,4.70
2023-04-30T03:42:21.188Z,5.05
2023-04-30T03:44:48.011Z,4.97
2023-04-30T03:47:15.061Z,5.13
2023-04-30T03:49:41.936Z,5.65
2023-04-30T03:52:08.749Z,5.00
2023-04-30T03:54:35.633Z,5.28
2023-04-30T03:57:04.316Z,4.85
2023-04-30T03:59:32.176Z,5.18
2023-04-30T04:02:01.569Z,5.30
2023-04-30T04:04:29.309Z,6.07
2023-04-30T04:06:56.228Z,5.57
2023-04-30T04:09:23.055Z,5.60
2023-04-30T04:11:49.957Z,6.00
2023-04-30T04:14:16.837Z,5.88
2023-04-30T04:16:44.660Z,5.32
2023-04-30T04:19:13.160Z,5.90
2023-04-30T04:21:40.074Z,5.85
2023-04-30T04:24:13.580Z,5.78
2023-04-30T04:26:41.260Z,5.32
2023-04-30T04:29:10.266Z,5.18
2023-04-30T04:31:38.746Z,5.03
2023-04-30T04:34:05.930Z,5.15
2023-04-30T04:36:34.048Z,6.18
2023-04-30T04:39:02.047Z,6.28
2023-04-30T04:41:30.261Z,6.47
2023-04-30T04:43:57.152Z,6.25
2023-04-30T04:46:25.502Z,4.97
2023-04-30T04:48:53.222Z,3.90
2023-04-30T04:51:20.330Z,4.85
2023-04-30T04:53:47.447Z,4.63
2023-04-30T04:56:14.317Z,4.50
2023-04-30T04:58:42.777Z,4.82
2023-04-30T05:01:10.339Z,6.22
2023-04-30T05:03:37.221Z,6.15
2023-04-30T05:06:04.969Z,5.85
2023-04-30T05:08:32.332Z,6.88
2023-04-30T05:10:59.143Z,7.32
2023-04-30T05:13:26.343Z,7.22
2023-04-30T05:15:54.155Z,7.38
2023-04-30T05:18:21.188Z,7.22
2023-04-30T05:20:48.516Z,7.07
2023-04-30T05:23:15.519Z,6.88
2023-04-30T05:25:42.363Z,7.22
2023-04-30T05:28:09.236Z,6.90
2023-04-30T05:30:36.127Z,6.70
2023-04-30T05:33:03.566Z,7.03
2023-04-30T05:35:31.515Z,7.28
2023-04-30T05:37:58.379Z,7.38
2023-04-30T05:40:25.262Z,5.88
2023-04-30T05:42:52.078Z,6.85
2023-04-30T05:45:18.998Z,6.97
2023-04-30T05:47:45.859Z,6.97
2023-04-30T05:50:12.709Z,7.47
2023-04-30T05:52:39.577Z,7.30
2023-04-30T05:55:07.392Z,7.40
2023-04-30T05:57:35.335Z,7.50
2023-04-30T06:00:02.158Z,7.47
2023-04-30T06:02:39.344Z,8.05
2023-04-30T06:05:07.991Z,7.10
2023-04-30T06:07:34.899Z,7.38
2023-04-30T06:10:01.748Z,8.40
2023-04-30T06:12:28.599Z,7.35
2023-04-30T06:14:55.501Z,7.78
2023-04-30T06:17:22.333Z,8.05
2023-04-30T06:19:49.180Z,7.93
2023-04-30T06:22:16.010Z,7.65
2023-04-30T06:24:42.771Z,7.63
2023-04-30T06:27:09.565Z,7.95
2023-04-30T06:29:36.367Z,7.22
2023-04-30T06:32:03.179Z,7.93
2023-04-30T06:34:29.953Z,7.88
2023-04-30T06:36:56.779Z,7.47
2023-04-30T06:39:23.616Z,7.70
2023-04-30T06:41:50.479Z,7.80
2023-04-30T06:44:17.950Z,7.28
2023-04-30T06:46:44.865Z,7.13
2023-04-30T06:49:11.751Z,7.97
2023-04-30T06:51:38.576Z,7.68
2023-04-30T06:54:06.119Z,7.10
2023-04-30T06:56:32.931Z,7.28
2023-04-30T06:58:59.772Z,7.90
2023-04-30T07:01:26.728Z,7.47
2023-04-30T07:03:54.967Z,7.70
2023-04-30T07:06:22.410Z,7.28
2023-04-30T07:08:49.248Z,7.88
2023-04-30T07:11:16.748Z,7.75
2023-04-30T07:13:43.637Z,7.82
2023-04-30T07:16:11.063Z,7.35
2023-04-30T07:18:38.127Z,7.22
2023-04-30T07:21:04.951Z,7.40
2023-04-30T07:23:31.743Z,7.60
2023-04-30T07:25:59.038Z,7.35
2023-04-30T07:28:25.865Z,6.40
2023-04-30T07:30:53.079Z,6.82
2023-04-30T07:33:19.896Z,7.05
2023-04-30T07:35:46.745Z,7.15
2023-04-30T07:38:13.591Z,7.28
2023-04-30T07:40:40.397Z,6.97
2023-04-30T07:43:07.361Z,6.65
2023-04-30T07:45:34.885Z,7.15
2023-04-30T07:48:01.904Z,6.88
2023-04-30T07:50:33.539Z,6.63
2023-04-30T07:53:01.744Z,5.95
2023-04-30T07:55:28.567Z,6.70
2023-04-30T07:57:55.510Z,7.65
2023-04-30T08:00:22.645Z,6.82
2023-04-30T08:02:50.520Z,6.20
2023-04-30T08:05:17.703Z,5.85
2023-04-30T08:07:44.609Z,5.82
2023-04-30T08:10:11.406Z,5.07
2023-04-30T08:12:38.879Z,4.85
2023-04-30T08:15:07.561Z,5.65
2023-04-30T08:17:34.996Z,5.28
2023-04-30T08:20:04.306Z,5.40
2023-04-30T08:22:31.211Z,5.20
2023-04-30T08:24:58.135Z,5.50
2023-04-30T08:27:25.203Z,5.60
2023-04-30T08:29:52.185Z,5.68
2023-04-30T08:32:20.120Z,5.38
2023-04-30T08:34:47.032Z,5.40
2023-04-30T08:37:13.911Z,5.03
2023-04-30T08:39:40.680Z,5.57
2023-04-30T08:42:09.742Z,4.82
2023-04-30T08:44:43.512Z,4.70
2023-04-30T08:47:13.213Z,4.00
2023-04-30T08:49:41.144Z,3.92
2023-04-30T08:52:08.605Z,3.60
2023-04-30T08:54:38.418Z,3.45
2023-04-30T08:57:06.335Z,3.83
2023-04-30T08:59:33.371Z,4.55
2023-04-30T09:02:03.051Z,4.60
2023-04-30T09:04:29.968Z,4.40
2023-04-30T09:06:59.172Z,4.30
2023-04-30T09:09:39.022Z,4.45
2023-04-30T09:12:19.028Z,4.10
2023-04-30T09:15:06.313Z,3.47
2023-04-30T09:17:34.324Z,3.78
2023-04-30T09:20:27.784Z,3.40
2023-04-30T09:23:10.878Z,3.00
2023-04-30T09:25:43.944Z,3.28
2023-04-30T09:28:12.573Z,3.63
2023-04-30T09:30:41.171Z,3.15
2023-04-30T09:33:11.387Z,3.10
2023-04-30T09:35:42.037Z,3.75
2023-04-30T09:38:32.179Z,3.42
2023-04-30T09:43:31.155Z,2.47
2023-04-30T09:45:59.870Z,2.78
2023-04-30T09:48:28.299Z,2.60
2023-04-30T09:50:55.374Z,2.65
2023-04-30T09:53:23.597Z,3.00
2023-04-30T09:55:51.926Z,2.60
2023-04-30T09:58:19.881Z,2.58
2023-04-30T10:00:50.184Z,2.60
2023-04-30T10:03:17.183Z,2.40
2023-04-30T10:05:49.187Z,2.35
2023-04-30T10:08:36.435Z,2.20
2023-04-30T10:11:05.658Z,2.83
2023-04-30T10:13:39.646Z,2.55
2023-04-30T10:16:12.567Z,2.30
2023-04-30T10:18:42.591Z,2.50
2023-04-30T10:23:43.414Z,2.40
2023-04-30T10:26:16.158Z,2.30
2023-04-30T10:28:43.359Z,2.83
2023-04-30T10:31:11.423Z,2.20
2023-04-30T10:33:58.784Z,2.10
2023-04-30T10:36:41.088Z,2.33
2023-04-30T10:39:08.593Z,2.40
2023-04-30T10:41:35.535Z,2.35
2023-04-30T10:44:05.128Z,2.53
2023-04-30T10:46:36.336Z,2.58
2023-04-30T10:49:03.869Z,2.30
2023-04-30T10:51:58.518Z,2.63
2023-04-30T10:54:28.986Z,2.50
2023-04-30T10:57:13.157Z,2.45
2023-04-30T11:00:08.301Z,2.10
2023-04-30T11:02:44.067Z,2.30
2023-04-30T11:05:13.855Z,2.70
2023-04-30T11:07:58.316Z,2.30
2023-04-30T11:10:28.805Z,2.35
2023-04-30T11:12:56.294Z,2.30
2023-04-30T11:15:40.685Z,2.03
2023-04-30T11:18:09.495Z,2.10
2023-04-30T11:20:44.023Z,2.13
2023-04-30T11:23:25.030Z,2.10
2023-04-30T11:26:01.317Z,2.20
2023-04-30T11:28:28.917Z,2.30
2023-04-30T11:30:59.137Z,2.28
2023-04-30T11:33:31.823Z,2.40
2023-04-30T11:36:00.515Z,2.53
2023-04-30T11:38:36.074Z,2.15
2023-04-30T11:41:04.885Z,1.90
2023-04-30T11:43:34.081Z,2.30
2023-04-30T11:46:17.594Z,2.15
2023-04-30T11:48:46.765Z,2.17
2023-04-30T11:51:22.486Z,2.20
2023-04-30T11:53:52.069Z,2.33
2023-04-30T11:56:21.224Z,2.10
2023-04-30T11:58:49.974Z,2.50
2023-04-30T12:01:17.832Z,2.47
2023-04-30T12:03:53.190Z,2.13
2023-04-30T12:06:25.453Z,2.38
2023-04-30T12:09:01.417Z,2.50
2023-04-30T12:11:31.306Z,2.55
2023-04-30T12:16:50.842Z,2.70
2023-04-30T12:19:25.160Z,2.25
2023-04-30T12:21:54.878Z,2.67
2023-04-30T12:24:23.454Z,2.40
2023-04-30T12:26:53.905Z,2.38
2023-04-30T12:29:24.861Z,2.63
2023-04-30T12:31:52.408Z,2.70
2023-04-30T12:34:19.192Z,2.63
2023-04-30T12:36:46.048Z,2.15
2023-04-30T12:39:16.015Z,2.05
2023-04-30T12:41:48.765Z,2.58
2023-04-30T12:44:25.966Z,2.70
2023-04-30T12:47:00.404Z,2.63
2023-04-30T12:49:33.762Z,4.85
2023-04-30T12:52:12.967Z,10.80
2023-04-30T12:54:40.405Z,12.45
2023-04-30T12:57:09.874Z,19.90
2023-04-30T12:59:39.049Z,5.57
2023-04-30T13:02:14.716Z,3.85
2023-04-30T13:04:42.693Z,2.70
2023-04-30T13:07:09.875Z,3.50
2023-04-30T13:09:37.711Z,3.90
2023-04-30T13:12:04.748Z,9.57
2023-04-30T13:14:32.760Z,3.80
2023-04-30T13:16:59.991Z,3.08
2023-04-30T13:19:26.946Z,3.10
2023-04-30T13:21:53.869Z,2.78
2023-04-30T13:24:21.183Z,2.80
2023-04-30T13:26:48.764Z,2.60
2023-04-30T13:29:15.537Z,2.25
2023-04-30T13:31:42.533Z,2.25
2023-04-30T13:34:10.152Z,2.33
2023-04-30T13:36:37.107Z,2.35
2023-04-30T13:39:04.808Z,2.53
2023-04-30T13:41:31.910Z,2.20
2023-04-30T13:43:59.971Z,2.15
2023-04-30T13:46:26.819Z,2.10
2023-04-30T13:48:53.630Z,1.90
2023-04-30T13:51:20.940Z,2.15
2023-04-30T13:53:47.991Z,2.10
2023-04-30T13:56:15.444Z,1.80
2023-04-30T13:58:42.265Z,1.95
2023-04-30T14:01:10.298Z,2.03
2023-04-30T14:03:37.355Z,1.95
2023-04-30T14:06:05.855Z,1.90
2023-04-30T14:08:33.665Z,2.10
2023-04-30T14:11:01.051Z,2.13
2023-04-30T14:13:27.854Z,1.73
2023-04-30T14:15:55.970Z,2.00
2023-04-30T14:18:23.092Z,1.98
2023-04-30T14:20:50.140Z,2.28
2023-04-30T14:23:16.934Z,1.92
2023-04-30T14:25:44.437Z,2.40
2023-04-30T14:28:11.789Z,3.22
2023-04-30T14:30:38.850Z,2.67
2023-04-30T14:33:06.729Z,2.55
2023-04-30T14:35:33.843Z,2.33
2023-04-30T14:38:00.694Z,2.10
2023-04-30T14:40:27.595Z,2.15
2023-04-30T14:42:54.363Z,2.05
2023-04-30T14:45:21.217Z,2.00
2023-04-30T14:47:48.538Z,2.03
2023-04-30T14:50:15.460Z,1.85
2023-04-30T14:52:42.298Z,1.80
2023-04-30T14:55:09.614Z,1.80
2023-04-30T14:57:36.570Z,1.90
2023-04-30T15:00:04.181Z,2.47
2023-04-30T15:02:31.162Z,1.98
2023-04-30T15:04:58.196Z,1.65
2023-04-30T15:07:25.061Z,1.80
2023-04-30T15:09:52.593Z,1.85
2023-04-30T15:12:20.063Z,2.00
2023-04-30T15:14:49.234Z,1.67
2023-04-30T15:17:16.106Z,1.95
2023-04-30T15:19:43.499Z,2.00
2023-04-30T15:22:10.403Z,1.60
2023-04-30T15:24:37.226Z,1.70
2023-04-30T15:27:04.327Z,1.70
2023-04-30T15:29:31.395Z,1.90
2023-04-30T15:31:59.621Z,1.80
2023-04-30T15:34:26.646Z,1.77
2023-04-30T15:36:53.529Z,1.70
2023-04-30T15:39:20.923Z,1.90
2023-04-30T15:41:47.765Z,1.80
2023-04-30T15:44:14.946Z,1.95
2023-04-30T15:46:41.996Z,1.80
2023-04-30T15:49:08.867Z,1.67
2023-04-30T15:51:36.592Z,1.80
2023-04-30T15:54:03.521Z,1.55
2023-04-30T15:56:30.455Z,1.55
2023-04-30T15:58:57.803Z,1.73
2023-04-30T16:01:24.683Z,1.60
2023-04-30T16:03:52.097Z,1.83
2023-04-30T16:06:19.498Z,1.67
2023-04-30T16:08:47.369Z,1.48
2023-04-30T16:11:14.653Z,1.52
2023-04-30T16:13:41.552Z,1.75
2023-04-30T16:16:08.745Z,1.52
2023-04-30T16:18:35.663Z,1.90
2023-04-30T16:21:02.606Z,1.73
2023-04-30T16:23:29.501Z,1.83
2023-04-30T16:25:56.353Z,1.98
2023-04-30T16:28:23.537Z,1.83
2023-04-30T16:30:50.566Z,1.55
2023-04-30T16:33:17.476Z,1.52
2023-04-30T16:35:44.444Z,1.80
2023-04-30T16:38:11.275Z,1.58
2023-04-30T16:40:38.109Z,1.70
2023-04-30T16:43:06.127Z,2.00
2023-04-30T16:45:33.277Z,1.42
2023-04-30T16:48:00.518Z,2.08
2023-04-30T16:50:27.737Z,1.77
2023-04-30T16:52:54.587Z,1.55
2023-04-30T16:55:21.467Z,1.63
2023-04-30T16:57:48.741Z,1.50
2023-04-30T17:00:16.596Z,1.73
2023-04-30T17:02:52.632Z,1.58
2023-04-30T17:05:20.196Z,1.90
2023-04-30T17:07:47.368Z,1.58
2023-04-30T17:10:14.931Z,1.58
2023-04-30T17:12:41.960Z,1.70
2023-04-30T17:15:09.156Z,1.73
2023-04-30T17:17:36.120Z,1.50
2023-04-30T17:20:03.507Z,1.80
2023-04-30T17:22:30.382Z,1.60
2023-04-30T17:24:59.437Z,1.70
2023-04-30T17:27:27.536Z,1.58
2023-04-30T17:29:54.705Z,1.60
2023-04-30T17:32:21.656Z,1.77
2023-04-30T17:34:48.661Z,1.65
2023-04-30T17:37:15.854Z,1.58
2023-04-30T17:39:42.634Z,1.63
2023-04-30T17:42:09.900Z,1.60
2023-04-30T17:44:36.682Z,1.67
2023-04-30T17:47:03.491Z,2.03
2023-04-30T17:49:30.583Z,1.73
2023-04-30T17:51:59.061Z,1.88
2023-04-30T17:54:26.153Z,1.90
2023-04-30T17:56:53.011Z,2.10
2023-04-30T17:59:19.824Z,1.83
2023-04-30T18:01:46.672Z,1.90
2023-04-30T18:04:19.927Z,1.83
2023-04-30T18:06:47.893Z,1.83
2023-04-30T18:09:16.277Z,1.48
2023-04-30T18:11:43.234Z,1.60
2023-04-30T18:14:10.379Z,1.90
2023-04-30T18:16:37.213Z,2.03
2023-04-30T18:19:04.030Z,2.00
2023-04-30T18:21:30.855Z,1.63
2023-04-30T18:23:57.643Z,1.80
2023-04-30T18:26:24.748Z,1.77
2023-04-30T18:28:52.301Z,1.70
2023-04-30T18:31:19.326Z,1.88
2023-04-30T18:33:46.203Z,1.90
2023-04-30T18:36:13.199Z,2.28
2023-04-30T18:38:40.026Z,1.70
2023-04-30T18:41:07.285Z,2.28
2023-04-30T18:43:34.148Z,2.20
2023-04-30T18:46:00.991Z,4.22
2023-04-30T18:48:27.790Z,4.75
2023-04-30T18:50:54.575Z,5.85
2023-04-30T18:53:21.393Z,6.57
2023-04-30T18:55:48.229Z,6.80
2023-04-30T18:58:15.136Z,5.15
2023-04-30T19:00:42.943Z,5.90
2023-04-30T19:03:10.396Z,5.32
2023-04-30T19:05:37.652Z,3.72
2023-04-30T19:08:04.591Z,5.95
2023-04-30T19:10:31.382Z,24.35
2023-04-30T19:12:58.185Z,12.80
2023-04-30T19:15:25.561Z,5.85
2023-04-30T19:17:52.483Z,3.45
2023-04-30T19:20:19.422Z,6.65
2023-04-30T19:22:49.706Z,4.40
2023-04-30T19:25:17.890Z,6.70
2023-04-30T19:27:44.833Z,4.05
2023-04-30T19:30:12.340Z,9.40
2023-04-30T19:32:39.140Z,23.15
2023-04-30T19:35:06.650Z,16.52
2023-04-30T19:37:33.492Z,18.48
2023-04-30T19:40:00.327Z,13.20
2023-04-30T19:42:27.164Z,5.97
2023-04-30T19:44:54.132Z,5.35
2023-04-30T19:47:22.692Z,4.78
2023-04-30T19:49:49.483Z,3.65
2023-04-30T19:52:16.334Z,3.85
2023-04-30T19:54:48.373Z,6.45
2023-04-30T19:57:16.877Z,5.10
2023-04-30T19:59:43.949Z,5.50
2023-04-30T20:02:10.858Z,6.03
2023-04-30T20:04:37.888Z,7.32
2023-04-30T20:07:04.749Z,6.25
2023-04-30T20:09:31.616Z,6.60
2023-04-30T20:11:58.507Z,7.05
2023-04-30T20:14:25.466Z,5.47
2023-04-30T20:16:54.249Z,5.65
2023-04-30T20:19:22.003Z,3.35
2023-04-30T20:21:49.348Z,3.03
2023-04-30T20:24:16.247Z,4.85
2023-04-30T20:26:43.327Z,4.40
2023-04-30T20:29:10.232Z,3.20
2023-04-30T20:31:37.697Z,3.08
2023-04-30T20:34:04.908Z,3.13
2023-04-30T20:36:32.405Z,3.97
2023-04-30T20:38:59.546Z,2.70
2023-04-30T20:41:26.654Z,2.50
2023-04-30T20:43:53.989Z,2.63
2023-04-30T20:46:24.792Z,2.78
2023-04-30T20:48:54.392Z,3.28
2023-04-30T20:51:23.324Z,2.50
2023-04-30T20:53:50.176Z,3.00
2023-04-30T20:56:17.003Z,3.17
2023-04-30T20:58:43.846Z,3.53
2023-04-30T21:01:10.723Z,3.33
2023-04-30T21:03:37.639Z,3.47
2023-04-30T21:06:06.077Z,3.83
2023-04-30T21:08:32.930Z,3.40
2023-04-30T21:10:59.818Z,3.08
2023-04-30T21:13:26.583Z,2.92
2023-04-30T21:15:54.742Z,3.08
2023-04-30T21:18:21.562Z,2.90
2023-04-30T21:20:48.376Z,3.67
2023-04-30T21:23:15.234Z,3.80
2023-04-30T21:25:42.145Z,4.32
2023-04-30T21:28:09.019Z,3.58
2023-04-30T21:30:37.033Z,3.17
2023-04-30T21:33:04.591Z,3.10
2023-04-30T21:35:33.082Z,3.08
2023-04-30T21:38:00.037Z,3.03
2023-04-30T21:40:26.941Z,3.30
2023-04-30T21:42:53.762Z,2.80
2023-04-30T21:45:20.662Z,2.95
2023-04-30T21:47:48.382Z,2.88
2023-04-30T21:50:15.227Z,2.90
2023-04-30T21:52:42.155Z,2.83
2023-04-30T21:55:09.767Z,2.55
2023-04-30T21:57:36.562Z,3.00
2023-04-30T22:00:06.286Z,2.15
2023-04-30T22:02:33.422Z,2.38
2023-04-30T22:05:00.853Z,2.70
2023-04-30T22:07:28.039Z,2.65
2023-04-30T22:09:55.078Z,2.33
2023-04-30T22:12:24.935Z,2.28
2023-04-30T22:14:55.405Z,3.08
2023-04-30T22:17:22.525Z,3.00
2023-04-30T22:19:49.357Z,3.40
2023-04-30T22:22:16.476Z,2.88
2023-04-30T22:24:43.318Z,3.10
2023-04-30T22:27:10.129Z,3.25
2023-04-30T22:29:37.123Z,3.35
2023-04-30T22:32:04.671Z,3.17
2023-04-30T22:34:34.851Z,4.57
2023-04-30T22:39:28.425Z,3.63
2023-04-30T22:41:55.801Z,4.50
2023-04-30T22:44:22.833Z,3.65
2023-04-30T22:46:50.246Z,3.40
2023-04-30T22:49:27.563Z,3.35
2023-04-30T22:51:58.391Z,3.70
2023-04-30T22:54:25.300Z,3.60
2023-04-30T22:56:52.281Z,3.15
2023-04-30T22:59:19.145Z,3.55
2023-04-30T23:01:46.008Z,3.38
2023-04-30T23:04:13.542Z,3.72
2023-04-30T23:06:41.374Z,3.45
2023-04-30T23:09:08.641Z,3.20
2023-04-30T23:11:35.537Z,3.50
2023-04-30T23:14:02.467Z,3.42
2023-04-30T23:16:29.332Z,3.28
2023-04-30T23:18:56.618Z,3.50
2023-04-30T23:21:23.812Z,3.63
2023-04-30T23:23:50.851Z,3.75
2023-04-30T23:26:17.697Z,4.05
2023-04-30T23:28:44.520Z,3.47
2023-04-30T23:31:11.583Z,3.33
2023-04-30T23:33:38.405Z,4.03
2023-04-30T23:36:05.644Z,3.90
2023-04-30T23:38:32.466Z,3.20
2023-04-30T23:40:59.326Z,3.30
2023-04-30T23:43:26.158Z,3.20
2023-04-30T23:45:53.020Z,3.17
2023-04-30T23:48:19.901Z,3.35
2023-04-30T23:50:47.097Z,3.13
2023-04-30T23:53:17.016Z,2.80
2023-04-30T23:58:10.809Z,2.80
